createdAt,value
2018-05-19T00:01:00.354Z,15.30
2018-05-19T00:06:03.904Z,15.20
2018-05-19T00:11:06.570Z,15.10
2018-05-19T00:16:09.645Z,15.10
2018-05-19T00:21:12.344Z,15.00
2018-05-19T00:26:15.009Z,15.00
2018-05-19T00:31:17.703Z,14.90
2018-05-19T00:36:20.423Z,14.80
2018-05-19T00:41:23.193Z,14.70
2018-05-19T00:46:25.855Z,14.70
2018-05-19T00:51:28.597Z,14.70
2018-05-19T00:56:31.224Z,14.60
2018-05-19T01:01:33.824Z,14.50
2018-05-19T01:06:36.653Z,14.50
2018-05-19T01:11:39.494Z,14.40
2018-05-19T01:16:42.843Z,14.30
2018-05-19T01:21:46.706Z,14.30
2018-05-19T01:26:49.422Z,14.20
2018-05-19T01:31:53.265Z,14.20
2018-05-19T01:36:55.908Z,14.10
2018-05-19T01:41:58.642Z,14.10
2018-05-19T01:47:01.822Z,14.00
2018-05-19T01:52:04.508Z,13.90
2018-05-19T01:57:07.940Z,13.80
2018-05-19T02:02:10.749Z,13.80
2018-05-19T02:07:13.527Z,13.80
2018-05-19T02:12:16.377Z,13.70
2018-05-19T02:17:19.507Z,13.70
2018-05-19T02:22:22.750Z,13.60
2018-05-19T02:27:27.037Z,13.50
2018-05-19T02:32:30.700Z,13.50
2018-05-19T02:37:33.346Z,13.40
2018-05-19T02:42:36.276Z,13.40
2018-05-19T02:47:39.531Z,13.30
2018-05-19T02:52:42.159Z,13.30
2018-05-19T02:57:44.860Z,13.20
2018-05-19T03:02:48.202Z,13.10
2018-05-19T03:07:50.983Z,13.00
2018-05-19T03:12:53.627Z,13.00
2018-05-19T03:17:56.359Z,13.00
2018-05-19T03:23:00.199Z,12.90
2018-05-19T03:28:03.324Z,12.90
2018-05-19T03:33:05.994Z,12.80
2018-05-19T03:38:08.591Z,12.80
2018-05-19T03:43:11.235Z,12.80
2018-05-19T03:48:14.643Z,12.70
2018-05-19T03:53:17.293Z,12.70
2018-05-19T03:58:31.926Z,12.60
2018-05-19T04:03:35.225Z,12.60
2018-05-19T04:08:38.348Z,12.60
2018-05-19T04:13:41.939Z,12.50
2018-05-19T04:18:44.710Z,12.50
2018-05-19T04:23:47.354Z,12.50
2018-05-19T04:28:50.065Z,12.50
2018-05-19T04:33:53.592Z,12.50
2018-05-19T04:39:01.674Z,12.50
2018-05-19T04:44:04.389Z,12.50
2018-05-19T04:49:07.007Z,12.50
2018-05-19T04:54:09.957Z,12.50
2018-05-19T04:59:13.171Z,12.60
2018-05-19T05:04:15.851Z,12.70
2018-05-19T05:09:18.544Z,12.70
2018-05-19T05:14:22.055Z,12.80
2018-05-19T05:19:24.740Z,12.90
2018-05-19T05:24:27.328Z,13.10
2018-05-19T05:29:30.866Z,13.20
2018-05-19T05:34:33.936Z,13.40
2018-05-19T05:39:36.969Z,13.50
2018-05-19T05:49:46.533Z,13.90
2018-05-19T05:54:49.589Z,14.10
2018-05-19T05:59:53.349Z,14.30
2018-05-19T06:04:56.964Z,14.40
2018-05-19T06:09:59.737Z,14.70
2018-05-19T06:15:02.399Z,14.90
2018-05-19T06:20:07.571Z,15.10
2018-05-19T06:25:11.203Z,15.10
2018-05-19T06:30:13.897Z,15.20
2018-05-19T06:35:17.294Z,15.20
2018-05-19T06:40:20.078Z,15.30
2018-05-19T06:45:22.822Z,15.40
2018-05-19T06:50:26.458Z,15.80
2018-05-19T06:55:29.970Z,15.80
2018-05-19T07:00:33.359Z,16.40
2018-05-19T07:05:36.256Z,16.30
2018-05-19T07:10:38.983Z,16.70
2018-05-19T07:15:42.667Z,17.50
2018-05-19T07:20:45.309Z,17.50
2018-05-19T07:25:48.853Z,17.80
2018-05-19T07:30:52.362Z,18.20
2018-05-19T07:35:55.450Z,18.50
2018-05-19T07:40:58.141Z,18.80
2018-05-19T07:46:01.669Z,19.20
2018-05-19T07:51:04.305Z,19.50
2018-05-19T07:56:06.914Z,19.80
2018-05-19T08:01:10.309Z,20.40
2018-05-19T08:06:12.904Z,20.40
2018-05-19T08:11:15.880Z,20.60
2018-05-19T08:16:18.602Z,20.90
2018-05-19T08:21:21.395Z,21.10
2018-05-19T08:26:24.362Z,21.30
2018-05-19T08:31:28.016Z,21.70
2018-05-19T08:36:31.657Z,21.80
2018-05-19T08:41:34.353Z,21.90
2018-05-19T08:46:36.998Z,21.90
2018-05-19T08:51:40.445Z,22.00
2018-05-19T08:56:43.030Z,22.00
2018-05-19T09:01:46.062Z,22.00
2018-05-19T09:06:48.688Z,22.00
2018-05-19T09:11:51.389Z,22.00
2018-05-19T09:16:54.367Z,22.00
2018-05-19T09:21:57.208Z,22.00
2018-05-19T09:26:59.943Z,22.00
2018-05-19T09:32:02.690Z,22.00
2018-05-19T09:37:05.754Z,22.10
2018-05-19T09:42:08.605Z,22.20
2018-05-19T09:47:11.396Z,22.30
2018-05-19T09:52:14.135Z,22.50
2018-05-19T09:57:16.725Z,22.60
2018-05-19T10:02:19.336Z,22.70
2018-05-19T10:07:21.893Z,22.90
2018-05-19T10:12:25.280Z,23.50
2018-05-19T10:17:27.844Z,23.40
2018-05-19T10:22:30.398Z,23.70
2018-05-19T10:27:32.990Z,24.00
2018-05-19T10:32:35.563Z,24.20
2018-05-19T10:37:38.119Z,24.50
2018-05-19T10:42:40.722Z,24.60
2018-05-19T10:47:43.247Z,24.80
2018-05-19T10:52:45.899Z,25.00
2018-05-19T10:57:48.769Z,25.20
2018-05-19T11:02:51.421Z,25.50
2018-05-19T11:07:54.263Z,25.70
2018-05-19T11:12:56.797Z,25.80
2018-05-19T11:18:00.159Z,26.00
2018-05-19T11:23:02.853Z,26.10
2018-05-19T11:28:05.458Z,26.30
2018-05-19T11:33:08.043Z,26.40
2018-05-19T11:38:10.868Z,26.60
2018-05-19T11:43:13.496Z,26.80
2018-05-19T11:48:16.170Z,26.90
2018-05-19T11:53:18.826Z,26.90
2018-05-19T11:58:21.558Z,26.80
2018-05-19T12:03:24.112Z,26.40
2018-05-19T12:08:26.646Z,26.30
2018-05-19T12:13:29.186Z,26.00
2018-05-19T12:18:31.772Z,25.70
2018-05-19T12:23:34.353Z,25.40
2018-05-19T12:28:36.895Z,25.20
2018-05-19T12:33:39.476Z,24.90
2018-05-19T12:38:42.059Z,24.80
2018-05-19T12:43:44.645Z,24.70
2018-05-19T12:48:47.338Z,24.80
2018-05-19T12:53:49.870Z,24.80
2018-05-19T12:58:52.433Z,24.90
2018-05-19T13:03:55.062Z,25.00
2018-05-19T13:08:57.645Z,25.00
2018-05-19T13:14:00.954Z,25.20
2018-05-19T13:19:03.498Z,25.20
2018-05-19T13:24:06.105Z,25.30
2018-05-19T13:29:08.667Z,25.40
2018-05-19T13:34:11.959Z,25.50
2018-05-19T13:39:14.521Z,25.50
2018-05-19T13:44:17.093Z,25.50
2018-05-19T13:49:19.741Z,25.50
2018-05-19T13:54:22.301Z,25.50
2018-05-19T13:59:24.914Z,25.50
2018-05-19T14:04:27.468Z,25.50
2018-05-19T14:09:30.017Z,25.50
2018-05-19T14:14:32.612Z,25.60
2018-05-19T14:19:35.224Z,25.60
2018-05-19T14:24:37.883Z,25.60
2018-05-19T14:29:40.411Z,25.50
2018-05-19T14:34:42.954Z,25.30
2018-05-19T14:39:45.518Z,25.30
2018-05-19T14:44:48.190Z,25.30
2018-05-19T14:49:50.781Z,25.20
2018-05-19T14:54:53.362Z,25.00
2018-05-19T14:59:55.964Z,25.00
2018-05-19T15:04:58.555Z,24.80
2018-05-19T15:10:01.100Z,24.60
2018-05-19T15:15:03.710Z,24.40
2018-05-19T15:20:06.375Z,24.30
2018-05-19T15:25:08.936Z,24.10
2018-05-19T15:30:11.607Z,24.00
2018-05-19T15:35:14.264Z,23.90
2018-05-19T15:40:17.787Z,23.60
2018-05-19T15:45:21.204Z,23.50
2018-05-19T15:50:23.774Z,23.50
2018-05-19T15:55:26.406Z,23.40
2018-05-19T16:00:28.957Z,23.30
2018-05-19T16:05:31.507Z,23.20
2018-05-19T16:10:34.066Z,23.10
2018-05-19T16:15:36.689Z,23.00
2018-05-19T16:20:39.240Z,22.90
2018-05-19T16:25:41.859Z,22.80
2018-05-19T16:30:44.541Z,22.70
2018-05-19T16:35:47.193Z,22.60
2018-05-19T16:40:49.790Z,22.50
2018-05-19T16:45:52.341Z,22.40
2018-05-19T16:50:54.905Z,22.30
2018-05-19T16:55:57.539Z,22.20
2018-05-19T17:01:00.281Z,22.10
2018-05-19T17:06:02.853Z,22.00
2018-05-19T17:11:05.461Z,21.80
2018-05-19T17:16:08.015Z,21.70
2018-05-19T17:21:11.351Z,21.40
2018-05-19T17:26:14.127Z,21.40
2018-05-19T17:31:16.786Z,21.30
2018-05-19T17:36:19.480Z,21.10
2018-05-19T17:41:22.087Z,21.00
2018-05-19T17:46:24.657Z,20.90
2018-05-19T17:51:27.211Z,20.80
2018-05-19T17:56:29.769Z,20.70
2018-05-19T18:01:33.242Z,20.50
2018-05-19T18:06:35.819Z,20.50
2018-05-19T18:11:38.517Z,20.40
2018-05-19T18:16:41.094Z,20.20
2018-05-19T18:21:43.897Z,20.10
2018-05-19T18:26:46.618Z,20.00
2018-05-19T18:31:49.307Z,19.90
2018-05-19T18:36:51.899Z,19.80
2018-05-19T18:41:54.468Z,19.70
2018-05-19T18:46:57.808Z,19.50
2018-05-19T18:52:00.724Z,19.50
2018-05-19T18:57:03.318Z,19.50
2018-05-19T19:02:05.987Z,19.40
2018-05-19T19:07:09.641Z,19.20
2018-05-19T19:12:12.347Z,19.20
2018-05-19T19:17:15.925Z,19.10
2018-05-19T19:22:18.553Z,19.00
2018-05-19T19:27:21.391Z,19.00
2018-05-19T19:32:24.112Z,18.90
2018-05-19T19:37:26.844Z,18.80
2018-05-19T19:42:29.783Z,18.70
2018-05-19T19:47:33.352Z,18.60
2018-05-19T19:52:36.284Z,18.50
2018-05-19T19:57:39.505Z,18.50
2018-05-19T20:02:42.140Z,18.40
2018-05-19T20:07:44.823Z,18.30
2018-05-19T20:12:47.736Z,18.20
2018-05-19T20:17:50.398Z,18.20
2018-05-19T20:22:53.024Z,18.10
2018-05-19T20:27:55.735Z,18.00
2018-05-19T20:32:58.378Z,18.00
2018-05-19T20:38:01.217Z,17.90
2018-05-19T20:43:04.589Z,17.80
2018-05-19T20:48:07.299Z,17.80
2018-05-19T20:53:10.093Z,17.80
2018-05-19T21:04:19.629Z,17.60
2018-05-19T21:09:22.263Z,17.60
2018-05-19T21:14:25.327Z,17.50
2018-05-19T21:19:28.871Z,17.40
2018-05-19T21:24:32.251Z,17.40
2018-05-19T21:29:34.871Z,17.40
2018-05-19T21:34:37.727Z,17.40
2018-05-19T21:39:40.363Z,17.30
2018-05-19T21:44:43.028Z,17.30
2018-05-19T21:49:45.686Z,17.30
2018-05-19T21:54:48.340Z,17.20
2018-05-19T21:59:50.946Z,17.20
2018-05-19T22:04:53.584Z,17.20
2018-05-19T22:09:56.233Z,17.10
2018-05-19T22:14:59.128Z,17.10
2018-05-19T22:20:01.719Z,17.00
2018-05-19T22:25:04.378Z,17.00
2018-05-19T22:30:07.814Z,16.90
2018-05-19T22:35:10.527Z,16.90
2018-05-19T22:40:13.110Z,16.90
2018-05-19T22:45:16.028Z,16.80
2018-05-19T22:50:18.601Z,16.80
2018-05-19T22:55:21.224Z,16.70
2018-05-19T23:00:26.693Z,16.70
2018-05-19T23:05:29.602Z,16.60
2018-05-19T23:10:32.333Z,16.60
2018-05-19T23:15:36.095Z,16.60
2018-05-19T23:20:38.896Z,16.50
2018-05-19T23:25:41.502Z,16.40
2018-05-19T23:30:44.193Z,16.40
2018-05-19T23:35:47.062Z,16.30
2018-05-19T23:45:54.748Z,16.30
2018-05-19T23:50:57.428Z,16.30
2018-05-19T23:56:00.210Z,16.20
